Khanty Mansiysk Airport
USHH : now visible

Airfield :











YOU CAN JOIN US ON...

 
LOGIN :

Register | Disclaimer

   EN    FR    IT 

 









Legend :    VFR   Marginal VFR   IFR   Intensive IFR   Very Intensive IFR
Visi :
Ceiling :
>= 8 km
>= 3000ft
5 to 8 km
1000 to 3000 ft
1500m to 5 km
500 to 1000 ft
800 to 1500m
200 to 500 ft
< 800m
< 200 ft
Symbols :   Thunderstorms  Fog  Heavy snow  Heavy precipitations  Wind > 20 kt






- Airport Elevation : 76 ft
- IATA code : HMA


USHH - Khanty Mansiysk

CURRENT METAR :
  • 210330Z 24003MPS CAVOK M01/M02 Q1009 R24/310050 NOSIG

EXPIRED METARs :
  • 210300Z 21003MPS CAVOK M02/M03 Q1008 R24/310050 NOSIG
  • 210230Z 21002MPS CAVOK M01/M03 Q1009 R24/310050 NOSIG
  • 210200Z 23003MPS CAVOK M01/M02 Q1008 R24/310050 NOSIG
  • 210130Z 25004MPS CAVOK M01/M02 Q1008 R24/310050 NOSIG
  • 210100Z 24004MPS CAVOK M01/M02 Q1008 R24/310050 NOSIG

TAF TAF USHH
Valid from the 21 at 03:00 until the 22 at 03:00 UTC


210152Z 2103/2203 25005G10MPS 9999 BKN016
TEMPO 2103/2106 3100 -SHSN BR SCT005 BKN011CB
TEMPO 2106/2118 1500 SHSN SCT003 BKN011CB
BECMG 2108/2110 31003G08MPS
BECMG 2113/2115 36005G10MPS



MET'MAP, your aeronautical weather chart ! - Copyright ORBIFLY December 2007 - Disclaimer

ORBIFLY MET'MAP TEAM :

Programming & Development : Alexandra Zaïnal
Concept & original design : Baudouin d'Aumeries
Assistance for programming : Marc-Olivier Méhu
Technical & hardware support : Manuel Goepfert

Contact : metmap@orbifly.com




SOURCES & CREDITS :

   NOAA       Earth
Advisory